sensor_id;sensor_type;location;lat;lon;timestamp;P1;durP1;ratioP1;P2;durP2;ratioP2
38847;SDS011;24602;44.780;20.408;2022-09-16T00:01:57;9.73;;;2.15;;
38847;SDS011;24602;44.780;20.408;2022-09-16T00:04:27;10.70;;;2.80;;
38847;SDS011;24602;44.780;20.408;2022-09-16T00:06:59;9.48;;;1.92;;
38847;SDS011;24602;44.780;20.408;2022-09-16T00:09:32;9.70;;;2.00;;
38847;SDS011;24602;44.780;20.408;2022-09-16T00:15:17;9.23;;;1.60;;
38847;SDS011;24602;44.780;20.408;2022-09-16T00:18:01;11.07;;;2.25;;
38847;SDS011;24602;44.780;20.408;2022-09-16T00:20:33;6.45;;;1.45;;
38847;SDS011;24602;44.780;20.408;2022-09-16T00:23:06;12.33;;;1.93;;
38847;SDS011;24602;44.780;20.408;2022-09-16T00:25:35;7.30;;;1.80;;
38847;SDS011;24602;44.780;20.408;2022-09-16T00:28:09;9.70;;;1.13;;
38847;SDS011;24602;44.780;20.408;2022-09-16T00:30:43;5.68;;;1.48;;
38847;SDS011;24602;44.780;20.408;2022-09-16T00:33:11;7.55;;;1.48;;
38847;SDS011;24602;44.780;20.408;2022-09-16T00:35:41;9.47;;;1.60;;
38847;SDS011;24602;44.780;20.408;2022-09-16T00:38:14;6.55;;;1.67;;
38847;SDS011;24602;44.780;20.408;2022-09-16T00:40:44;5.63;;;1.42;;
38847;SDS011;24602;44.780;20.408;2022-09-16T00:43:18;6.47;;;1.40;;
38847;SDS011;24602;44.780;20.408;2022-09-16T00:45:56;10.63;;;1.70;;
38847;SDS011;24602;44.780;20.408;2022-09-16T00:48:30;8.27;;;2.38;;
38847;SDS011;24602;44.780;20.408;2022-09-16T00:51:25;6.30;;;1.38;;
38847;SDS011;24602;44.780;20.408;2022-09-16T00:53:58;6.47;;;1.58;;
38847;SDS011;24602;44.780;20.408;2022-09-16T00:56:50;6.35;;;1.83;;
38847;SDS011;24602;44.780;20.408;2022-09-16T00:59:27;10.90;;;1.35;;
38847;SDS011;24602;44.780;20.408;2022-09-16T01:02:10;8.13;;;1.30;;
38847;SDS011;24602;44.780;20.408;2022-09-16T01:07:36;10.50;;;1.93;;
38847;SDS011;24602;44.780;20.408;2022-09-16T01:10:14;8.35;;;1.40;;
38847;SDS011;24602;44.780;20.408;2022-09-16T01:13:00;5.25;;;1.42;;
38847;SDS011;24602;44.780;20.408;2022-09-16T01:15:44;11.40;;;1.65;;
38847;SDS011;24602;44.780;20.408;2022-09-16T01:33:02;8.10;;;1.90;;
38847;SDS011;24602;44.780;20.408;2022-09-16T01:39:25;9.18;;;1.50;;
38847;SDS011;24602;44.780;20.408;2022-09-16T01:48:28;5.15;;;1.92;;
38847;SDS011;24602;44.780;20.408;2022-09-16T01:54:22;5.47;;;1.95;;
38847;SDS011;24602;44.780;20.408;2022-09-16T02:00:06;4.15;;;1.10;;
38847;SDS011;24602;44.780;20.408;2022-09-16T02:05:41;7.85;;;1.60;;
38847;SDS011;24602;44.780;20.408;2022-09-16T02:08:23;5.22;;;1.90;;
38847;SDS011;24602;44.780;20.408;2022-09-16T02:11:17;5.45;;;1.38;;
38847;SDS011;24602;44.780;20.408;2022-09-16T02:14:03;3.97;;;1.38;;
38847;SDS011;24602;44.780;20.408;2022-09-16T02:16:57;4.47;;;1.35;;
38847;SDS011;24602;44.780;20.408;2022-09-16T02:19:54;8.90;;;1.63;;
38847;SDS011;24602;44.780;20.408;2022-09-16T02:22:38;8.35;;;1.80;;
38847;SDS011;24602;44.780;20.408;2022-09-16T02:25:17;7.47;;;1.75;;
38847;SDS011;24602;44.780;20.408;2022-09-16T02:27:47;5.15;;;1.33;;
38847;SDS011;24602;44.780;20.408;2022-09-16T02:30:20;8.82;;;1.55;;
38847;SDS011;24602;44.780;20.408;2022-09-16T02:32:56;8.45;;;1.60;;
38847;SDS011;24602;44.780;20.408;2022-09-16T02:35:28;4.85;;;1.45;;
38847;SDS011;24602;44.780;20.408;2022-09-16T02:38:17;5.82;;;1.40;;
38847;SDS011;24602;44.780;20.408;2022-09-16T02:40:50;7.10;;;1.85;;
38847;SDS011;24602;44.780;20.408;2022-09-16T02:43:26;6.75;;;1.50;;
38847;SDS011;24602;44.780;20.408;2022-09-16T02:57:29;4.78;;;1.73;;
38847;SDS011;24602;44.780;20.408;2022-09-16T03:00:00;3.90;;;1.45;;
38847;SDS011;24602;44.780;20.408;2022-09-16T03:02:33;7.47;;;1.40;;
38847;SDS011;24602;44.780;20.408;2022-09-16T03:05:07;4.70;;;1.83;;
38847;SDS011;24602;44.780;20.408;2022-09-16T03:07:39;5.55;;;1.13;;
38847;SDS011;24602;44.780;20.408;2022-09-16T03:10:09;5.25;;;1.70;;
38847;SDS011;24602;44.780;20.408;2022-09-16T03:24:27;6.07;;;1.33;;
38847;SDS011;24602;44.780;20.408;2022-09-16T03:27:18;4.32;;;1.20;;
38847;SDS011;24602;44.780;20.408;2022-09-16T03:32:57;3.25;;;1.08;;
38847;SDS011;24602;44.780;20.408;2022-09-16T03:35:33;3.97;;;1.27;;
38847;SDS011;24602;44.780;20.408;2022-09-16T03:38:15;4.63;;;1.15;;
38847;SDS011;24602;44.780;20.408;2022-09-16T03:40:46;4.93;;;1.13;;
38847;SDS011;24602;44.780;20.408;2022-09-16T03:43:15;3.50;;;1.08;;
38847;SDS011;24602;44.780;20.408;2022-09-16T03:45:45;2.28;;;0.68;;
38847;SDS011;24602;44.780;20.408;2022-09-16T03:48:15;5.50;;;1.23;;
38847;SDS011;24602;44.780;20.408;2022-09-16T03:50:47;3.45;;;0.88;;
38847;SDS011;24602;44.780;20.408;2022-09-16T03:53:19;2.92;;;1.05;;
38847;SDS011;24602;44.780;20.408;2022-09-16T03:55:50;3.42;;;1.40;;
38847;SDS011;24602;44.780;20.408;2022-09-16T03:58:22;9.48;;;2.20;;
38847;SDS011;24602;44.780;20.408;2022-09-16T04:00:51;7.63;;;1.90;;
38847;SDS011;24602;44.780;20.408;2022-09-16T04:03:22;7.03;;;1.70;;
38847;SDS011;24602;44.780;20.408;2022-09-16T04:05:55;6.60;;;2.08;;
38847;SDS011;24602;44.780;20.408;2022-09-16T04:08:23;7.93;;;1.70;;
38847;SDS011;24602;44.780;20.408;2022-09-16T04:11:00;4.15;;;1.70;;
38847;SDS011;24602;44.780;20.408;2022-09-16T04:13:35;5.15;;;1.77;;
38847;SDS011;24602;44.780;20.408;2022-09-16T04:16:03;5.53;;;1.80;;
38847;SDS011;24602;44.780;20.408;2022-09-16T04:18:35;6.38;;;2.00;;
38847;SDS011;24602;44.780;20.408;2022-09-16T04:21:04;4.22;;;1.80;;
38847;SDS011;24602;44.780;20.408;2022-09-16T04:23:33;5.63;;;1.90;;
38847;SDS011;24602;44.780;20.408;2022-09-16T04:26:02;5.05;;;1.83;;
38847;SDS011;24602;44.780;20.408;2022-09-16T04:28:36;5.43;;;1.75;;
38847;SDS011;24602;44.780;20.408;2022-09-16T04:31:05;7.13;;;2.15;;
38847;SDS011;24602;44.780;20.408;2022-09-16T04:33:36;7.80;;;2.03;;
38847;SDS011;24602;44.780;20.408;2022-09-16T04:36:09;3.33;;;1.65;;
38847;SDS011;24602;44.780;20.408;2022-09-16T04:38:48;7.68;;;1.77;;
38847;SDS011;24602;44.780;20.408;2022-09-16T04:41:19;8.02;;;1.80;;
38847;SDS011;24602;44.780;20.408;2022-09-16T04:43:50;8.93;;;1.83;;
38847;SDS011;24602;44.780;20.408;2022-09-16T04:46:30;5.20;;;2.10;;
38847;SDS011;24602;44.780;20.408;2022-09-16T04:49:01;10.52;;;2.40;;
38847;SDS011;24602;44.780;20.408;2022-09-16T04:51:32;6.88;;;2.33;;
38847;SDS011;24602;44.780;20.408;2022-09-16T04:54:02;10.43;;;2.85;;
38847;SDS011;24602;44.780;20.408;2022-09-16T04:56:33;5.72;;;2.63;;
38847;SDS011;24602;44.780;20.408;2022-09-16T04:59:02;9.65;;;2.60;;
38847;SDS011;24602;44.780;20.408;2022-09-16T05:01:35;7.35;;;2.15;;
38847;SDS011;24602;44.780;20.408;2022-09-16T05:04:18;10.00;;;2.97;;
38847;SDS011;24602;44.780;20.408;2022-09-16T05:06:48;8.25;;;2.67;;
38847;SDS011;24602;44.780;20.408;2022-09-16T05:09:17;8.00;;;3.08;;
38847;SDS011;24602;44.780;20.408;2022-09-16T05:11:47;8.90;;;3.00;;
38847;SDS011;24602;44.780;20.408;2022-09-16T05:14:17;8.68;;;3.92;;
38847;SDS011;24602;44.780;20.408;2022-09-16T05:16:47;14.88;;;3.90;;
38847;SDS011;24602;44.780;20.408;2022-09-16T05:19:16;9.95;;;4.40;;
38847;SDS011;24602;44.780;20.408;2022-09-16T05:21:49;12.23;;;4.38;;
38847;SDS011;24602;44.780;20.408;2022-09-16T05:24:19;8.30;;;4.05;;
38847;SDS011;24602;44.780;20.408;2022-09-16T05:26:47;8.18;;;4.20;;
38847;SDS011;24602;44.780;20.408;2022-09-16T05:29:18;11.02;;;3.90;;
38847;SDS011;24602;44.780;20.408;2022-09-16T05:31:47;14.10;;;3.95;;
38847;SDS011;24602;44.780;20.408;2022-09-16T05:34:18;7.22;;;2.70;;
38847;SDS011;24602;44.780;20.408;2022-09-16T05:36:51;16.15;;;3.28;;
38847;SDS011;24602;44.780;20.408;2022-09-16T05:39:28;8.90;;;2.95;;
38847;SDS011;24602;44.780;20.408;2022-09-16T05:41:59;8.13;;;2.40;;
38847;SDS011;24602;44.780;20.408;2022-09-16T05:44:27;6.03;;;2.08;;
38847;SDS011;24602;44.780;20.408;2022-09-16T05:46:58;6.88;;;2.10;;
38847;SDS011;24602;44.780;20.408;2022-09-16T05:49:28;7.22;;;2.38;;
38847;SDS011;24602;44.780;20.408;2022-09-16T05:51:58;16.85;;;3.30;;
38847;SDS011;24602;44.780;20.408;2022-09-16T05:54:26;14.20;;;3.25;;
38847;SDS011;24602;44.780;20.408;2022-09-16T05:56:58;11.10;;;2.50;;
38847;SDS011;24602;44.780;20.408;2022-09-16T05:59:37;10.57;;;2.50;;
38847;SDS011;24602;44.780;20.408;2022-09-16T06:02:09;11.15;;;2.70;;
38847;SDS011;24602;44.780;20.408;2022-09-16T06:04:44;13.32;;;6.13;;
38847;SDS011;24602;44.780;20.408;2022-09-16T06:07:11;8.88;;;4.95;;
38847;SDS011;24602;44.780;20.408;2022-09-16T06:09:42;7.57;;;3.17;;
38847;SDS011;24602;44.780;20.408;2022-09-16T06:12:09;5.95;;;2.13;;
38847;SDS011;24602;44.780;20.408;2022-09-16T06:14:40;6.90;;;2.22;;
38847;SDS011;24602;44.780;20.408;2022-09-16T06:17:12;7.53;;;2.30;;
38847;SDS011;24602;44.780;20.408;2022-09-16T06:19:40;5.45;;;1.85;;
38847;SDS011;24602;44.780;20.408;2022-09-16T06:22:11;4.30;;;1.75;;
38847;SDS011;24602;44.780;20.408;2022-09-16T06:24:42;4.90;;;1.70;;
38847;SDS011;24602;44.780;20.408;2022-09-16T06:27:11;3.72;;;1.50;;
38847;SDS011;24602;44.780;20.408;2022-09-16T06:29:42;2.42;;;1.23;;
38847;SDS011;24602;44.780;20.408;2022-09-16T06:32:16;3.90;;;1.40;;
38847;SDS011;24602;44.780;20.408;2022-09-16T06:34:44;4.93;;;1.38;;
38847;SDS011;24602;44.780;20.408;2022-09-16T06:37:13;9.60;;;2.05;;
38847;SDS011;24602;44.780;20.408;2022-09-16T06:39:48;3.00;;;1.20;;
38847;SDS011;24602;44.780;20.408;2022-09-16T06:42:16;3.78;;;1.27;;
38847;SDS011;24602;44.780;20.408;2022-09-16T06:44:49;5.47;;;1.55;;
38847;SDS011;24602;44.780;20.408;2022-09-16T06:47:22;4.95;;;1.85;;
38847;SDS011;24602;44.780;20.408;2022-09-16T06:49:53;6.80;;;1.75;;
38847;SDS011;24602;44.780;20.408;2022-09-16T06:52:30;7.50;;;2.00;;
38847;SDS011;24602;44.780;20.408;2022-09-16T06:54:59;4.10;;;1.92;;
38847;SDS011;24602;44.780;20.408;2022-09-16T06:57:30;5.07;;;1.60;;
38847;SDS011;24602;44.780;20.408;2022-09-16T07:00:00;7.15;;;1.50;;
38847;SDS011;24602;44.780;20.408;2022-09-16T07:02:29;5.57;;;2.30;;
38847;SDS011;24602;44.780;20.408;2022-09-16T07:04:58;8.07;;;1.90;;
38847;SDS011;24602;44.780;20.408;2022-09-16T07:07:29;10.25;;;1.95;;
38847;SDS011;24602;44.780;20.408;2022-09-16T07:10:05;8.25;;;1.88;;
38847;SDS011;24602;44.780;20.408;2022-09-16T07:12:37;5.10;;;1.73;;
38847;SDS011;24602;44.780;20.408;2022-09-16T07:15:04;6.97;;;1.63;;
38847;SDS011;24602;44.780;20.408;2022-09-16T07:17:35;4.15;;;1.45;;
38847;SDS011;24602;44.780;20.408;2022-09-16T07:20:05;5.15;;;1.90;;
38847;SDS011;24602;44.780;20.408;2022-09-16T07:22:37;4.28;;;1.80;;
38847;SDS011;24602;44.780;20.408;2022-09-16T07:25:04;6.20;;;1.75;;
38847;SDS011;24602;44.780;20.408;2022-09-16T07:27:36;3.38;;;1.25;;
38847;SDS011;24602;44.780;20.408;2022-09-16T07:30:08;4.85;;;1.30;;
38847;SDS011;24602;44.780;20.408;2022-09-16T07:32:38;5.57;;;1.05;;
38847;SDS011;24602;44.780;20.408;2022-09-16T07:35:09;3.95;;;1.08;;
38847;SDS011;24602;44.780;20.408;2022-09-16T07:37:39;6.82;;;1.45;;
38847;SDS011;24602;44.780;20.408;2022-09-16T07:40:09;5.68;;;1.33;;
38847;SDS011;24602;44.780;20.408;2022-09-16T07:42:39;5.07;;;1.08;;
38847;SDS011;24602;44.780;20.408;2022-09-16T07:45:09;3.83;;;1.25;;
38847;SDS011;24602;44.780;20.408;2022-09-16T07:47:40;4.75;;;1.10;;
38847;SDS011;24602;44.780;20.408;2022-09-16T07:50:09;7.88;;;1.35;;
38847;SDS011;24602;44.780;20.408;2022-09-16T07:52:40;6.07;;;1.48;;
38847;SDS011;24602;44.780;20.408;2022-09-16T07:55:09;5.63;;;1.40;;
38847;SDS011;24602;44.780;20.408;2022-09-16T07:57:39;5.28;;;1.48;;
38847;SDS011;24602;44.780;20.408;2022-09-16T08:00:09;4.28;;;1.70;;
38847;SDS011;24602;44.780;20.408;2022-09-16T08:02:43;3.13;;;1.33;;
38847;SDS011;24602;44.780;20.408;2022-09-16T08:05:13;6.35;;;1.65;;
38847;SDS011;24602;44.780;20.408;2022-09-16T08:07:46;2.88;;;1.40;;
38847;SDS011;24602;44.780;20.408;2022-09-16T08:10:14;2.70;;;1.35;;
38847;SDS011;24602;44.780;20.408;2022-09-16T08:12:45;4.65;;;1.25;;
38847;SDS011;24602;44.780;20.408;2022-09-16T08:15:17;2.53;;;0.80;;
38847;SDS011;24602;44.780;20.408;2022-09-16T08:17:53;6.20;;;1.30;;
38847;SDS011;24602;44.780;20.408;2022-09-16T08:20:21;6.50;;;1.55;;
38847;SDS011;24602;44.780;20.408;2022-09-16T08:22:52;3.40;;;1.00;;
38847;SDS011;24602;44.780;20.408;2022-09-16T08:25:25;2.45;;;0.90;;
38847;SDS011;24602;44.780;20.408;2022-09-16T08:27:55;4.40;;;1.00;;
38847;SDS011;24602;44.780;20.408;2022-09-16T08:30:25;3.05;;;1.35;;
38847;SDS011;24602;44.780;20.408;2022-09-16T08:32:56;5.47;;;1.63;;
38847;SDS011;24602;44.780;20.408;2022-09-16T08:35:41;2.95;;;1.30;;
38847;SDS011;24602;44.780;20.408;2022-09-16T08:38:08;5.32;;;1.10;;
38847;SDS011;24602;44.780;20.408;2022-09-16T08:40:43;4.78;;;1.30;;
38847;SDS011;24602;44.780;20.408;2022-09-16T08:46:22;4.38;;;1.25;;
38847;SDS011;24602;44.780;20.408;2022-09-16T08:54:01;4.55;;;1.50;;
38847;SDS011;24602;44.780;20.408;2022-09-16T08:56:53;3.65;;;1.38;;
38847;SDS011;24602;44.780;20.408;2022-09-16T08:59:29;3.45;;;0.75;;
38847;SDS011;24602;44.780;20.408;2022-09-16T09:17:21;2.45;;;0.65;;
38847;SDS011;24602;44.780;20.408;2022-09-16T09:20:39;3.25;;;0.60;;
38847;SDS011;24602;44.780;20.408;2022-09-16T09:36:13;5.78;;;2.85;;
38847;SDS011;24602;44.780;20.408;2022-09-16T09:44:50;5.20;;;2.08;;
38847;SDS011;24602;44.780;20.408;2022-09-16T09:47:46;4.68;;;1.88;;
38847;SDS011;24602;44.780;20.408;2022-09-16T09:50:37;7.90;;;1.92;;
38847;SDS011;24602;44.780;20.408;2022-09-16T09:53:12;5.40;;;2.00;;
38847;SDS011;24602;44.780;20.408;2022-09-16T10:01:54;7.53;;;1.90;;
38847;SDS011;24602;44.780;20.408;2022-09-16T10:04:37;7.50;;;2.20;;
38847;SDS011;24602;44.780;20.408;2022-09-16T10:07:10;8.25;;;2.67;;
38847;SDS011;24602;44.780;20.408;2022-09-16T10:10:02;5.63;;;1.40;;
38847;SDS011;24602;44.780;20.408;2022-09-16T10:12:43;8.80;;;1.83;;
38847;SDS011;24602;44.780;20.408;2022-09-16T10:15:23;9.98;;;2.13;;
38847;SDS011;24602;44.780;20.408;2022-09-16T10:21:12;6.13;;;2.20;;
38847;SDS011;24602;44.780;20.408;2022-09-16T10:23:56;8.63;;;2.92;;
38847;SDS011;24602;44.780;20.408;2022-09-16T10:26:27;6.57;;;1.77;;
38847;SDS011;24602;44.780;20.408;2022-09-16T10:29:14;5.47;;;1.80;;
38847;SDS011;24602;44.780;20.408;2022-09-16T10:31:44;3.90;;;1.98;;
38847;SDS011;24602;44.780;20.408;2022-09-16T10:34:33;7.95;;;2.25;;
38847;SDS011;24602;44.780;20.408;2022-09-16T10:37:14;5.18;;;2.42;;
38847;SDS011;24602;44.780;20.408;2022-09-16T10:39:52;9.75;;;2.30;;
38847;SDS011;24602;44.780;20.408;2022-09-16T10:42:32;10.13;;;2.10;;
38847;SDS011;24602;44.780;20.408;2022-09-16T10:45:34;8.10;;;2.05;;
38847;SDS011;24602;44.780;20.408;2022-09-16T10:48:05;5.18;;;1.77;;
38847;SDS011;24602;44.780;20.408;2022-09-16T10:53:35;6.80;;;1.67;;
38847;SDS011;24602;44.780;20.408;2022-09-16T10:56:19;5.00;;;1.50;;
38847;SDS011;24602;44.780;20.408;2022-09-16T11:10:23;7.40;;;2.13;;
38847;SDS011;24602;44.780;20.408;2022-09-16T11:22:03;5.50;;;1.83;;
38847;SDS011;24602;44.780;20.408;2022-09-16T11:27:37;7.18;;;3.20;;
38847;SDS011;24602;44.780;20.408;2022-09-16T11:30:31;8.68;;;2.35;;
38847;SDS011;24602;44.780;20.408;2022-09-16T11:39:49;9.10;;;3.30;;
38847;SDS011;24602;44.780;20.408;2022-09-16T11:45:51;7.70;;;3.15;;
38847;SDS011;24602;44.780;20.408;2022-09-16T11:51:45;10.77;;;3.33;;
38847;SDS011;24602;44.780;20.408;2022-09-16T11:58:04;9.85;;;3.72;;
38847;SDS011;24602;44.780;20.408;2022-09-16T12:01:23;9.93;;;3.58;;
38847;SDS011;24602;44.780;20.408;2022-09-16T12:07:13;9.23;;;3.67;;
38847;SDS011;24602;44.780;20.408;2022-09-16T12:12:56;6.15;;;3.50;;
38847;SDS011;24602;44.780;20.408;2022-09-16T12:15:43;4.88;;;2.72;;
38847;SDS011;24602;44.780;20.408;2022-09-16T12:18:48;5.90;;;2.70;;
38847;SDS011;24602;44.780;20.408;2022-09-16T12:21:23;8.20;;;2.92;;
38847;SDS011;24602;44.780;20.408;2022-09-16T12:24:10;10.15;;;3.10;;
38847;SDS011;24602;44.780;20.408;2022-09-16T12:27:05;6.95;;;3.50;;
38847;SDS011;24602;44.780;20.408;2022-09-16T12:30:21;7.53;;;2.90;;
38847;SDS011;24602;44.780;20.408;2022-09-16T12:35:52;6.30;;;2.80;;
38847;SDS011;24602;44.780;20.408;2022-09-16T12:38:29;7.85;;;2.63;;
38847;SDS011;24602;44.780;20.408;2022-09-16T13:02:15;10.93;;;4.03;;
38847;SDS011;24602;44.780;20.408;2022-09-16T13:04:50;8.32;;;3.50;;
38847;SDS011;24602;44.780;20.408;2022-09-16T13:13:17;4.15;;;1.80;;
38847;SDS011;24602;44.780;20.408;2022-09-16T13:15:59;5.10;;;2.55;;
38847;SDS011;24602;44.780;20.408;2022-09-16T13:23:47;9.82;;;2.80;;
38847;SDS011;24602;44.780;20.408;2022-09-16T13:26:38;7.20;;;1.83;;
38847;SDS011;24602;44.780;20.408;2022-09-16T13:29:41;4.97;;;1.80;;
38847;SDS011;24602;44.780;20.408;2022-09-16T13:32:43;7.07;;;2.10;;
38847;SDS011;24602;44.780;20.408;2022-09-16T13:35:38;4.95;;;1.95;;
38847;SDS011;24602;44.780;20.408;2022-09-16T13:38:20;6.25;;;2.22;;
38847;SDS011;24602;44.780;20.408;2022-09-16T13:41:02;7.03;;;2.47;;
38847;SDS011;24602;44.780;20.408;2022-09-16T13:43:50;6.47;;;2.92;;
38847;SDS011;24602;44.780;20.408;2022-09-16T13:46:31;8.68;;;2.63;;
38847;SDS011;24602;44.780;20.408;2022-09-16T13:51:50;8.13;;;2.63;;
38847;SDS011;24602;44.780;20.408;2022-09-16T13:56:58;7.68;;;2.28;;
38847;SDS011;24602;44.780;20.408;2022-09-16T14:00:04;5.90;;;2.03;;
38847;SDS011;24602;44.780;20.408;2022-09-16T14:05:43;4.60;;;1.85;;
38847;SDS011;24602;44.780;20.408;2022-09-16T14:11:48;5.38;;;2.17;;
38847;SDS011;24602;44.780;20.408;2022-09-16T14:14:58;4.47;;;2.15;;
38847;SDS011;24602;44.780;20.408;2022-09-16T14:17:40;4.78;;;2.00;;
38847;SDS011;24602;44.780;20.408;2022-09-16T14:20:19;5.57;;;2.13;;
38847;SDS011;24602;44.780;20.408;2022-09-16T14:23:03;4.45;;;1.70;;
38847;SDS011;24602;44.780;20.408;2022-09-16T14:25:48;5.93;;;2.38;;
38847;SDS011;24602;44.780;20.408;2022-09-16T14:28:24;3.80;;;1.90;;
38847;SDS011;24602;44.780;20.408;2022-09-16T14:33:30;3.17;;;1.80;;
38847;SDS011;24602;44.780;20.408;2022-09-16T14:39:17;4.78;;;2.50;;
38847;SDS011;24602;44.780;20.408;2022-09-16T14:41:49;4.28;;;1.90;;
38847;SDS011;24602;44.780;20.408;2022-09-16T14:44:36;10.38;;;2.13;;
38847;SDS011;24602;44.780;20.408;2022-09-16T14:47:34;5.00;;;2.30;;
38847;SDS011;24602;44.780;20.408;2022-09-16T14:50:32;6.63;;;2.15;;
38847;SDS011;24602;44.780;20.408;2022-09-16T14:53:29;4.50;;;2.30;;
38847;SDS011;24602;44.780;20.408;2022-09-16T14:56:14;6.55;;;2.60;;
38847;SDS011;24602;44.780;20.408;2022-09-16T14:58:44;7.55;;;2.72;;
38847;SDS011;24602;44.780;20.408;2022-09-16T15:01:26;4.43;;;3.42;;
38847;SDS011;24602;44.780;20.408;2022-09-16T15:04:01;7.13;;;4.05;;
38847;SDS011;24602;44.780;20.408;2022-09-16T15:06:35;7.00;;;3.35;;
38847;SDS011;24602;44.780;20.408;2022-09-16T15:09:59;5.57;;;3.50;;
38847;SDS011;24602;44.780;20.408;2022-09-16T15:12:26;7.13;;;3.70;;
38847;SDS011;24602;44.780;20.408;2022-09-16T15:18:06;8.77;;;2.90;;
38847;SDS011;24602;44.780;20.408;2022-09-16T15:20:42;10.60;;;3.33;;
38847;SDS011;24602;44.780;20.408;2022-09-16T15:23:37;6.97;;;2.63;;
38847;SDS011;24602;44.780;20.408;2022-09-16T15:26:19;5.50;;;2.35;;
38847;SDS011;24602;44.780;20.408;2022-09-16T15:29:03;4.03;;;2.17;;
38847;SDS011;24602;44.780;20.408;2022-09-16T15:31:45;5.32;;;2.58;;
38847;SDS011;24602;44.780;20.408;2022-09-16T15:34:22;7.55;;;2.28;;
38847;SDS011;24602;44.780;20.408;2022-09-16T15:37:02;3.72;;;2.20;;
38847;SDS011;24602;44.780;20.408;2022-09-16T15:39:37;5.45;;;2.13;;
38847;SDS011;24602;44.780;20.408;2022-09-16T15:42:15;5.00;;;2.72;;
38847;SDS011;24602;44.780;20.408;2022-09-16T15:44:58;4.68;;;2.15;;
38847;SDS011;24602;44.780;20.408;2022-09-16T15:47:34;5.00;;;2.08;;
38847;SDS011;24602;44.780;20.408;2022-09-16T15:50:21;8.63;;;2.90;;
38847;SDS011;24602;44.780;20.408;2022-09-16T15:53:02;6.45;;;2.78;;
38847;SDS011;24602;44.780;20.408;2022-09-16T15:56:06;8.77;;;2.67;;
38847;SDS011;24602;44.780;20.408;2022-09-16T15:58:55;5.95;;;2.65;;
38847;SDS011;24602;44.780;20.408;2022-09-16T16:01:39;7.78;;;2.55;;
38847;SDS011;24602;44.780;20.408;2022-09-16T16:04:22;5.15;;;2.50;;
38847;SDS011;24602;44.780;20.408;2022-09-16T16:07:04;6.20;;;3.80;;
38847;SDS011;24602;44.780;20.408;2022-09-16T16:09:40;6.32;;;2.70;;
38847;SDS011;24602;44.780;20.408;2022-09-16T16:12:13;5.90;;;3.40;;
38847;SDS011;24602;44.780;20.408;2022-09-16T16:14:47;11.82;;;4.47;;
38847;SDS011;24602;44.780;20.408;2022-09-16T16:17:16;5.88;;;2.80;;
38847;SDS011;24602;44.780;20.408;2022-09-16T16:19:57;8.30;;;4.18;;
38847;SDS011;24602;44.780;20.408;2022-09-16T16:22:30;10.65;;;5.95;;
38847;SDS011;24602;44.780;20.408;2022-09-16T16:25:01;9.52;;;4.82;;
38847;SDS011;24602;44.780;20.408;2022-09-16T16:27:33;6.35;;;2.95;;
38847;SDS011;24602;44.780;20.408;2022-09-16T16:30:07;5.72;;;2.97;;
38847;SDS011;24602;44.780;20.408;2022-09-16T16:32:38;5.95;;;2.50;;
38847;SDS011;24602;44.780;20.408;2022-09-16T16:35:08;6.30;;;2.90;;
38847;SDS011;24602;44.780;20.408;2022-09-16T16:37:38;5.65;;;3.20;;
38847;SDS011;24602;44.780;20.408;2022-09-16T16:40:14;9.35;;;3.03;;
38847;SDS011;24602;44.780;20.408;2022-09-16T16:42:47;7.47;;;4.75;;
38847;SDS011;24602;44.780;20.408;2022-09-16T16:45:16;13.57;;;6.68;;
38847;SDS011;24602;44.780;20.408;2022-09-16T16:47:48;18.77;;;11.05;;
38847;SDS011;24602;44.780;20.408;2022-09-16T16:50:19;14.80;;;8.23;;
38847;SDS011;24602;44.780;20.408;2022-09-16T16:52:51;8.80;;;5.50;;
38847;SDS011;24602;44.780;20.408;2022-09-16T16:55:23;8.13;;;4.25;;
38847;SDS011;24602;44.780;20.408;2022-09-16T16:57:58;8.05;;;6.30;;
38847;SDS011;24602;44.780;20.408;2022-09-16T17:00:38;16.70;;;13.38;;
38847;SDS011;24602;44.780;20.408;2022-09-16T17:03:11;10.25;;;7.85;;
38847;SDS011;24602;44.780;20.408;2022-09-16T17:05:48;6.28;;;4.38;;
38847;SDS011;24602;44.780;20.408;2022-09-16T17:08:19;7.15;;;4.20;;
38847;SDS011;24602;44.780;20.408;2022-09-16T17:10:53;6.07;;;3.50;;
38847;SDS011;24602;44.780;20.408;2022-09-16T17:13:42;4.70;;;3.60;;
38847;SDS011;24602;44.780;20.408;2022-09-16T17:16:19;9.80;;;3.90;;
38847;SDS011;24602;44.780;20.408;2022-09-16T17:18:55;6.25;;;3.78;;
38847;SDS011;24602;44.780;20.408;2022-09-16T17:21:30;4.78;;;3.53;;
38847;SDS011;24602;44.780;20.408;2022-09-16T17:24:04;7.68;;;3.58;;
38847;SDS011;24602;44.780;20.408;2022-09-16T17:26:35;6.88;;;4.20;;
38847;SDS011;24602;44.780;20.408;2022-09-16T17:29:09;7.18;;;4.70;;
38847;SDS011;24602;44.780;20.408;2022-09-16T17:31:42;7.32;;;4.50;;
38847;SDS011;24602;44.780;20.408;2022-09-16T17:34:12;7.82;;;3.92;;
38847;SDS011;24602;44.780;20.408;2022-09-16T17:36:44;6.40;;;3.20;;
38847;SDS011;24602;44.780;20.408;2022-09-16T17:39:18;9.37;;;3.63;;
38847;SDS011;24602;44.780;20.408;2022-09-16T17:41:52;10.88;;;4.95;;
38847;SDS011;24602;44.780;20.408;2022-09-16T17:46:55;5.93;;;3.70;;
38847;SDS011;24602;44.780;20.408;2022-09-16T17:49:24;8.40;;;4.57;;
38847;SDS011;24602;44.780;20.408;2022-09-16T17:51:54;7.15;;;4.35;;
38847;SDS011;24602;44.780;20.408;2022-09-16T17:54:25;7.55;;;4.85;;
38847;SDS011;24602;44.780;20.408;2022-09-16T17:56:55;9.68;;;4.75;;
38847;SDS011;24602;44.780;20.408;2022-09-16T17:59:25;6.18;;;4.72;;
38847;SDS011;24602;44.780;20.408;2022-09-16T18:01:55;7.65;;;4.60;;
38847;SDS011;24602;44.780;20.408;2022-09-16T18:04:29;7.82;;;4.72;;
38847;SDS011;24602;44.780;20.408;2022-09-16T18:07:01;7.18;;;4.32;;
38847;SDS011;24602;44.780;20.408;2022-09-16T18:09:30;11.30;;;5.38;;
38847;SDS011;24602;44.780;20.408;2022-09-16T18:12:01;5.40;;;3.50;;
38847;SDS011;24602;44.780;20.408;2022-09-16T18:14:31;7.93;;;5.50;;
38847;SDS011;24602;44.780;20.408;2022-09-16T18:17:02;10.15;;;7.80;;
38847;SDS011;24602;44.780;20.408;2022-09-16T18:19:31;9.30;;;5.78;;
38847;SDS011;24602;44.780;20.408;2022-09-16T18:22:03;10.30;;;4.90;;
38847;SDS011;24602;44.780;20.408;2022-09-16T18:24:36;5.72;;;3.83;;
38847;SDS011;24602;44.780;20.408;2022-09-16T18:27:09;6.78;;;2.53;;
38847;SDS011;24602;44.780;20.408;2022-09-16T18:29:44;4.15;;;2.45;;
38847;SDS011;24602;44.780;20.408;2022-09-16T18:32:14;6.20;;;2.15;;
38847;SDS011;24602;44.780;20.408;2022-09-16T18:34:45;3.88;;;1.80;;
38847;SDS011;24602;44.780;20.408;2022-09-16T18:37:20;6.28;;;2.35;;
38847;SDS011;24602;44.780;20.408;2022-09-16T18:39:53;4.80;;;2.75;;
38847;SDS011;24602;44.780;20.408;2022-09-16T18:42:24;4.70;;;2.53;;
38847;SDS011;24602;44.780;20.408;2022-09-16T18:44:53;6.20;;;4.30;;
38847;SDS011;24602;44.780;20.408;2022-09-16T18:47:22;6.65;;;3.25;;
38847;SDS011;24602;44.780;20.408;2022-09-16T18:49:53;7.40;;;3.60;;
38847;SDS011;24602;44.780;20.408;2022-09-16T18:52:22;9.15;;;4.20;;
38847;SDS011;24602;44.780;20.408;2022-09-16T18:54:56;7.03;;;3.65;;
38847;SDS011;24602;44.780;20.408;2022-09-16T18:57:29;6.75;;;3.03;;
38847;SDS011;24602;44.780;20.408;2022-09-16T19:00:00;5.68;;;3.33;;
38847;SDS011;24602;44.780;20.408;2022-09-16T19:02:30;7.22;;;4.07;;
38847;SDS011;24602;44.780;20.408;2022-09-16T19:05:05;11.40;;;4.53;;
38847;SDS011;24602;44.780;20.408;2022-09-16T19:07:33;9.65;;;6.30;;
38847;SDS011;24602;44.780;20.408;2022-09-16T19:10:06;7.85;;;5.82;;
38847;SDS011;24602;44.780;20.408;2022-09-16T19:12:35;8.98;;;6.82;;